Time;durP1;ratioP1;P1;durP2;ratioP2;P2;SDS_P1;SDS_P2;PMS_P1;PMS_P2;Temp;Humidity;BMP_temperature;BMP_pressure;BME280_temperature;BME280_humidity;BME280_pressure;Samples;Min_cycle;Max_cycle;Signal;HPM_P1;HPM_P2
2023/01/26 00:00:11;;;;;;;6.07;5.42;;;;;;;-2.22;49.70;102241.09;463087;114;922495;-72
2023/01/26 00:01:19;;;;;;;5.97;5.34;;;;;;;-2.25;49.62;102242.12;462305;112;930398;-71
2023/01/26 00:02:22;;;;;;;8.62;5.76;;;;;;;-2.28;49.76;102247.66;463569;114;922538;-72
2023/01/26 00:03:26;;;;;;;5.41;4.87;;;;;;;-2.30;49.84;102241.54;466520;114;922944;-73
2023/01/26 00:04:29;;;;;;;5.50;4.62;;;;;;;-2.32;49.80;102243.46;463020;114;922936;-72
2023/01/26 00:05:37;;;;;;;5.71;5.21;;;;;;;-2.32;49.91;102242.59;462799;114;922496;-71
2023/01/26 00:06:41;;;;;;;5.74;5.03;;;;;;;-2.32;50.20;102234.59;462051;115;922297;-71
2023/01/26 00:07:44;;;;;;;7.08;5.78;;;;;;;-2.32;50.18;102235.45;464023;114;922464;-71
2023/01/26 00:08:49;;;;;;;6.94;5.50;;;;;;;-2.31;50.29;102242.48;466558;114;922390;-73
2023/01/26 00:09:53;;;;;;;5.19;4.76;;;;;;;-2.30;50.38;102244.20;460025;114;930663;-72
2023/01/26 00:10:56;;;;;;;4.52;3.98;;;;;;;-2.29;50.42;102237.06;458497;114;922330;-72
2023/01/26 00:11:59;;;;;;;4.87;4.47;;;;;;;-2.30;50.56;102241.54;458483;116;922125;-71
2023/01/26 00:13:03;;;;;;;5.61;5.04;;;;;;;-2.29;50.63;102237.06;462562;114;922838;-72
2023/01/26 00:14:06;;;;;;;4.77;4.37;;;;;;;-2.30;50.61;102232.66;463339;114;922345;-71
2023/01/26 00:15:09;;;;;;;5.48;4.74;;;;;;;-2.33;50.51;102236.39;463579;114;922325;-70
2023/01/26 00:16:14;;;;;;;5.96;5.11;;;;;;;-2.34;50.68;102237.34;463591;114;922496;-71
2023/01/26 00:17:24;;;;;;;4.98;4.58;;;;;;;-2.35;50.71;102240.09;463684;112;930503;-72
2023/01/26 00:18:24;;;;;;;5.76;5.26;;;;;;;-2.36;50.79;102233.89;463067;114;922325;-71
2023/01/26 00:19:27;;;;;;;6.69;5.98;;;;;;;-2.35;50.91;102230.27;464824;112;922300;-71
2023/01/26 00:20:30;;;;;;;6.92;6.33;;;;;;;-2.34;51.00;102232.00;463637;114;922374;-71
2023/01/26 00:21:33;;;;;;;8.08;7.28;;;;;;;-2.32;51.05;102234.59;463620;114;922454;-71
2023/01/26 00:22:36;;;;;;;8.62;7.85;;;;;;;-2.30;51.07;102232.66;463639;112;922381;-70
2023/01/26 00:23:39;;;;;;;10.53;9.16;;;;;;;-2.30;51.05;102233.52;463188;114;922441;-72
2023/01/26 00:24:42;;;;;;;10.73;9.73;;;;;;;-2.28;51.18;102231.63;463773;114;922297;-71
2023/01/26 00:25:45;;;;;;;13.22;11.89;;;;;;;-2.26;51.16;102223.53;463686;114;922304;-72
2023/01/26 00:26:51;;;;;;;11.72;10.68;;;;;;;-2.25;51.01;102227.90;468226;112;922717;-71
2023/01/26 00:27:55;;;;;;;14.54;12.82;;;;;;;-2.25;51.13;102222.55;465321;112;922460;-71
2023/01/26 00:28:59;;;;;;;12.57;11.48;;;;;;;-2.25;51.03;102217.21;463737;112;922324;-71
2023/01/26 00:30:02;;;;;;;11.06;10.06;;;;;;;-2.27;51.13;102230.69;463323;114;922555;-71
2023/01/26 00:31:14;;;;;;;12.14;11.10;;;;;;;-2.26;51.07;102227.04;463206;114;922809;-72
2023/01/26 00:32:18;;;;;;;12.34;11.21;;;;;;;-2.26;51.04;102227.04;463734;112;930281;-71
2023/01/26 00:33:21;;;;;;;14.61;13.45;;;;;;;-2.26;51.20;102226.20;472146;112;923175;-71
2023/01/26 00:34:24;;;;;;;18.02;16.54;;;;;;;-2.26;51.19;102221.69;469533;112;922519;-72
2023/01/26 00:35:27;;;;;;;13.01;11.86;;;;;;;-2.26;51.21;102221.69;461657;114;922498;-71
2023/01/26 00:36:30;;;;;;;10.04;9.23;;;;;;;-2.26;51.17;102228.88;463151;114;922494;-72
2023/01/26 00:37:34;;;;;;;10.29;9.26;;;;;;;-2.27;51.15;102227.16;468226;112;930680;-72
2023/01/26 00:38:37;;;;;;;10.91;9.43;;;;;;;-2.29;51.23;102224.56;463261;114;922388;-69
2023/01/26 00:39:41;;;;;;;9.62;8.76;;;;;;;-2.32;51.22;102232.78;453894;117;922570;-72
2023/01/26 00:40:44;;;;;;;8.07;7.24;;;;;;;-2.34;51.20;102234.67;463116;114;930534;-71
2023/01/26 00:43:10;;;;;;;9.29;8.40;;;;;;;-2.40;51.19;102221.67;460927;114;922539;-72
2023/01/26 00:44:13;;;;;;;8.69;7.99;;;;;;;-2.43;51.31;102221.02;461161;114;922492;-71
2023/01/26 00:45:19;;;;;;;6.96;6.37;;;;;;;-2.44;51.29;102220.15;463233;114;922830;-71
2023/01/26 00:46:22;;;;;;;7.57;6.84;;;;;;;-2.45;51.40;102221.09;463111;114;922564;-71
2023/01/26 00:47:29;;;;;;;6.63;6.03;;;;;;;-2.46;51.41;102223.84;464934;112;923195;-72
2023/01/26 00:48:32;;;;;;;6.45;5.86;;;;;;;-2.45;51.44;102222.91;469467;112;922932;-71
2023/01/26 00:49:35;;;;;;;6.51;5.94;;;;;;;-2.48;51.30;102217.76;463199;114;922958;-70
2023/01/26 00:50:41;;;;;;;7.33;6.64;;;;;;;-2.49;51.48;102214.22;465303;112;930290;-70
2023/01/26 00:51:44;;;;;;;6.92;6.32;;;;;;;-2.49;51.57;102219.56;471359;112;922902;-71
2023/01/26 00:52:47;;;;;;;6.90;6.06;;;;;;;-2.49;51.52;102216.89;466533;112;922631;-70
2023/01/26 00:53:51;;;;;;;6.81;6.25;;;;;;;-2.47;51.53;102209.63;463168;114;922901;-72
2023/01/26 00:54:54;;;;;;;7.80;7.07;;;;;;;-2.47;51.56;102211.44;463191;114;930509;-71
2023/01/26 00:55:57;;;;;;;8.03;7.39;;;;;;;-2.48;51.64;102215.91;463142;112;922932;-71
2023/01/26 00:57:01;;;;;;;7.81;7.11;;;;;;;-2.48;51.69;102207.91;463176;114;922405;-72
2023/01/26 00:58:06;;;;;;;7.62;6.73;;;;;;;-2.45;51.61;102212.22;464064;112;922919;-71
2023/01/26 00:59:09;;;;;;;8.47;7.43;;;;;;;-2.45;51.76;102212.22;463002;114;922472;-71
2023/01/26 01:00:15;;;;;;;8.24;7.44;;;;;;;-2.43;51.84;102210.33;463226;114;922772;-71
2023/01/26 01:01:18;;;;;;;8.74;8.02;;;;;;;-2.40;51.90;102213.66;463348;112;922400;-72
2023/01/26 01:02:22;;;;;;;8.29;7.59;;;;;;;-2.37;51.89;102213.47;465513;112;922569;-71
2023/01/26 01:03:25;;;;;;;8.97;8.18;;;;;;;-2.36;51.93;102209.84;463350;112;922444;-71
2023/01/26 01:04:34;;;;;;;9.33;8.48;;;;;;;-2.34;51.96;102210.63;464340;112;922547;-70
2023/01/26 01:05:38;;;;;;;9.77;8.82;;;;;;;-2.31;51.93;102215.77;469934;112;922501;-70
2023/01/26 01:06:42;;;;;;;10.33;9.36;;;;;;;-2.30;51.84;102217.50;471267;112;922886;-71
2023/01/26 01:07:45;;;;;;;9.06;8.26;;;;;;;-2.29;51.85;102219.22;469379;112;922636;-71
2023/01/26 01:08:49;;;;;;;8.46;7.66;;;;;;;-2.28;51.86;102217.41;463217;114;922549;-70
2023/01/26 01:09:52;;;;;;;9.08;8.19;;;;;;;-2.30;51.70;102214.83;469425;112;922868;-71
2023/01/26 01:11:04;;;;;;;9.73;8.63;;;;;;;-2.33;51.42;102209.69;466663;112;922749;-71
2023/01/26 01:12:07;;;;;;;8.79;7.33;;;;;;;-2.37;51.54;102216.14;462864;114;922424;-71
2023/01/26 01:13:10;;;;;;;8.82;8.06;;;;;;;-2.40;51.58;102210.99;466135;112;922642;-71
2023/01/26 01:14:15;;;;;;;7.44;6.82;;;;;;;-2.42;51.67;102209.34;468838;112;922822;-71
2023/01/26 01:15:19;;;;;;;8.02;7.32;;;;;;;-2.43;51.79;102211.19;463120;114;922653;-71
2023/01/26 01:16:24;;;;;;;9.09;8.32;;;;;;;-2.42;51.71;102214.69;469890;112;930453;-71
2023/01/26 01:17:27;;;;;;;9.03;8.12;;;;;;;-2.42;51.77;102204.87;470467;112;922580;-70
2023/01/26 01:18:34;;;;;;;8.21;7.44;;;;;;;-2.41;51.89;102209.27;471454;112;922928;-70
2023/01/26 01:19:35;;;;;;;8.33;7.63;;;;;;;-2.41;51.86;102209.27;470798;112;922513;-71
2023/01/26 01:20:40;;;;;;;9.36;8.56;;;;;;;-2.40;51.94;102205.66;471453;112;923512;-71
2023/01/26 01:21:44;;;;;;;7.63;6.82;;;;;;;-2.39;51.83;102212.72;471335;112;922449;-71
2023/01/26 01:22:47;;;;;;;8.11;7.42;;;;;;;-2.37;52.00;102207.30;466049;112;922781;-71
2023/01/26 01:23:50;;;;;;;9.09;8.23;;;;;;;-2.37;52.02;102210.80;469035;112;922682;-71
2023/01/26 01:24:53;;;;;;;8.79;8.08;;;;;;;-2.36;52.03;102214.33;471253;112;923112;-71
2023/01/26 01:25:58;;;;;;;8.16;7.34;;;;;;;-2.35;52.02;102208.90;463199;114;922801;-71
2023/01/26 01:27:02;;;;;;;8.26;7.56;;;;;;;-2.32;52.02;102207.88;462974;114;923052;-69
2023/01/26 01:28:06;;;;;;;8.45;7.76;;;;;;;-2.32;52.03;102200.72;463679;112;922560;-71
2023/01/26 01:29:16;;;;;;;9.45;8.53;;;;;;;-2.30;52.02;102211.29;464199;112;928753;-72
2023/01/26 01:30:17;;;;;;;9.19;8.36;;;;;;;-2.30;51.97;102198.80;462865;114;922531;-70
2023/01/26 01:31:21;;;;;;;8.94;7.97;;;;;;;-2.28;51.94;102204.92;463296;112;922453;-71
2023/01/26 01:32:24;;;;;;;8.22;7.53;;;;;;;-2.26;51.95;102202.99;463319;114;922847;-71
2023/01/26 01:33:27;;;;;;;8.19;7.49;;;;;;;-2.24;52.04;102202.91;463195;114;922939;-71
2023/01/26 01:34:30;;;;;;;8.33;6.86;;;;;;;-2.22;52.05;102201.02;464937;114;922819;-71
2023/01/26 01:35:34;;;;;;;7.68;6.90;;;;;;;-2.22;52.04;102204.55;463205;114;922521;-71
2023/01/26 01:36:38;;;;;;;7.24;6.54;;;;;;;-2.22;52.04;102198.34;463040;114;922513;-71
2023/01/26 01:37:41;;;;;;;7.29;6.69;;;;;;;-2.20;51.90;102199.09;466860;112;922556;-70
2023/01/26 01:38:44;;;;;;;6.98;6.39;;;;;;;-2.20;52.01;102196.42;471500;112;922506;-71
2023/01/26 01:39:48;;;;;;;8.57;7.78;;;;;;;-2.19;52.03;102198.14;465542;112;922403;-71
2023/01/26 01:40:52;;;;;;;7.10;6.50;;;;;;;-2.20;52.03;102191.94;463110;114;922562;-71
2023/01/26 01:41:55;;;;;;;7.56;6.81;;;;;;;-2.20;51.87;102191.94;463114;114;922628;-71
2023/01/26 01:42:58;;;;;;;7.23;6.63;;;;;;;-2.19;51.92;102193.66;469411;112;922450;-71
2023/01/26 01:44:20;;;;;;;7.02;6.41;;;;;;;-2.19;51.84;102192.80;469771;112;922560;-71
2023/01/26 01:45:31;;;;;;;6.51;5.97;;;;;;;-2.19;51.91;102196.33;463010;114;922539;-72
2023/01/26 01:46:35;;;;;;;7.82;7.12;;;;;;;-2.20;51.82;102193.75;466280;112;922693;-71
2023/01/26 01:47:38;;;;;;;6.57;6.07;;;;;;;-2.19;51.88;102198.14;470334;112;922580;-71
2023/01/26 01:48:57;;;;;;;6.96;6.36;;;;;;;-2.20;52.00;102202.63;466021;112;922913;-70
2023/01/26 01:50:03;;;;;;;6.26;5.73;;;;;;;-2.19;51.95;102199.01;471223;112;922846;-71
2023/01/26 01:51:09;;;;;;;7.04;6.43;;;;;;;-2.19;51.97;102195.47;463828;112;922623;-71
2023/01/26 01:52:18;;;;;;;7.36;6.76;;;;;;;-2.19;51.94;102200.81;470440;112;922807;-72
2023/01/26 01:53:26;;;;;;;7.63;6.94;;;;;;;-2.18;51.97;102199.87;463177;114;922496;-71
2023/01/26 01:54:49;;;;;;;7.42;6.85;;;;;;;-2.18;51.96;102191.85;462578;112;922513;-71
2023/01/26 01:55:56;;;;;;;7.89;7.20;;;;;;;-2.17;51.96;102193.58;465037;112;922619;-71
2023/01/26 01:57:03;;;;;;;8.09;7.41;;;;;;;-2.17;51.91;102198.92;471225;112;922503;-71
2023/01/26 01:58:07;;;;;;;8.38;7.55;;;;;;;-2.19;51.99;102187.45;470325;112;922908;-71
2023/01/26 01:59:11;;;;;;;8.19;7.59;;;;;;;-2.19;51.91;102196.33;469116;112;922651;-71
2023/01/26 02:00:18;;;;;;;8.78;7.99;;;;;;;-2.19;52.01;102192.80;470751;112;922614;-71
2023/01/26 02:01:24;;;;;;;8.72;7.92;;;;;;;-2.19;51.99;102193.66;467036;112;922717;-71
2023/01/26 02:02:27;;;;;;;8.46;7.76;;;;;;;-2.19;51.97;102188.32;465441;112;922620;-70
2023/01/26 02:03:32;;;;;;;8.31;7.61;;;;;;;-2.19;51.84;102192.80;466696;112;923028;-71
2023/01/26 02:04:35;;;;;;;8.01;7.38;;;;;;;-2.20;51.80;102185.73;468220;112;930553;-72
2023/01/26 02:05:44;;;;;;;9.24;8.44;;;;;;;-2.19;51.94;102190.13;463069;114;930548;-71
2023/01/26 02:06:56;;;;;;;8.44;7.74;;;;;;;-2.20;51.84;102191.94;462864;114;922983;-71
2023/01/26 02:08:01;;;;;;;9.26;8.42;;;;;;;-2.21;51.78;102195.59;469344;112;922946;-71
2023/01/26 02:09:06;;;;;;;9.32;8.55;;;;;;;-2.21;51.80;102194.73;464452;112;922930;-71
2023/01/26 02:10:19;;;;;;;8.64;7.89;;;;;;;-2.22;51.88;102198.34;466835;112;922914;-71
2023/01/26 02:11:47;;;;;;;8.61;7.91;;;;;;;-2.24;51.87;102201.09;471155;112;923095;-71
2023/01/26 02:12:55;;;;;;;9.09;8.28;;;;;;;-2.24;51.85;102198.42;465168;112;923033;-71
2023/01/26 02:14:01;;;;;;;9.36;8.59;;;;;;;-2.27;51.75;102195.95;466157;112;922704;-72
2023/01/26 02:15:06;;;;;;;10.61;9.56;;;;;;;-2.28;51.73;102199.58;469237;112;922521;-72
2023/01/26 02:16:10;;;;;;;9.88;9.11;;;;;;;-2.30;51.68;102196.13;463022;114;922568;-70
2023/01/26 02:17:13;;;;;;;9.00;8.26;;;;;;;-2.32;51.59;102192.70;463534;112;923036;-70
2023/01/26 02:18:16;;;;;;;9.41;8.70;;;;;;;-2.35;51.71;102203.56;463260;114;922747;-71
2023/01/26 02:19:41;;;;;;;10.51;9.63;;;;;;;-2.37;51.76;102194.77;463199;112;923112;-72
2023/01/26 02:20:51;;;;;;;10.33;9.43;;;;;;;-2.37;51.83;102199.28;469146;112;922500;-71
2023/01/26 02:21:57;;;;;;;10.80;9.56;;;;;;;-2.38;51.88;102194.88;471279;112;922600;-71
2023/01/26 02:23:30;;;;;;;9.27;8.53;;;;;;;-2.38;51.94;102197.55;464493;112;922393;-72
2023/01/26 02:24:36;;;;;;;10.04;9.09;;;;;;;-2.39;51.96;102194.02;455948;114;922613;-71
2023/01/26 02:25:48;;;;;;;8.62;7.92;;;;;;;-2.40;51.94;102194.97;454632;114;923194;-71
2023/01/26 02:26:53;;;;;;;9.10;8.36;;;;;;;-2.41;52.06;102193.24;463269;112;922673;-70
2023/01/26 02:27:56;;;;;;;8.99;8.16;;;;;;;-2.42;52.00;102188.84;463553;112;922534;-72
2023/01/26 02:29:01;;;;;;;9.63;8.84;;;;;;;-2.43;52.08;102184.48;463284;112;930504;-71
2023/01/26 02:30:06;;;;;;;9.56;8.76;;;;;;;-2.43;52.12;102184.48;463084;114;922556;-71
2023/01/26 02:31:10;;;;;;;9.97;9.04;;;;;;;-2.42;52.12;102190.66;463034;114;922618;-69
2023/01/26 02:32:14;;;;;;;8.39;7.74;;;;;;;-2.43;52.10;102184.48;463434;112;922628;-71
2023/01/26 02:33:20;;;;;;;9.31;8.61;;;;;;;-2.43;51.98;102186.30;463119;114;922345;-71
2023/01/26 02:34:27;;;;;;;9.74;8.92;;;;;;;-2.43;52.07;102180.95;463026;112;922915;-72
2023/01/26 02:35:28;;;;;;;8.74;8.06;;;;;;;-2.43;52.11;102187.16;462926;114;922633;-71
2023/01/26 02:36:32;;;;;;;8.80;8.08;;;;;;;-2.42;52.06;102178.16;463205;114;922600;-69
2023/01/26 02:37:36;;;;;;;8.45;7.76;;;;;;;-2.42;52.07;102180.83;463241;112;922634;-71
2023/01/26 02:38:45;;;;;;;7.93;7.24;;;;;;;-2.42;52.04;102179.97;463224;114;922881;-71
2023/01/26 02:39:54;;;;;;;8.25;7.07;;;;;;;-2.43;52.05;102173.80;463163;112;922521;-70
2023/01/26 02:41:04;;;;;;;8.42;7.18;;;;;;;-2.43;51.96;102179.14;463052;114;922503;-70
2023/01/26 02:43:29;;;;;;;7.71;7.01;;;;;;;-2.43;52.06;102178.28;457268;115;922536;-72
2023/01/26 02:44:33;;;;;;;7.70;6.52;;;;;;;-2.44;51.99;102177.41;456429;114;922811;-72
2023/01/26 02:45:38;;;;;;;7.97;7.18;;;;;;;-2.45;52.06;102178.36;463255;114;922599;-72
2023/01/26 02:46:43;;;;;;;6.78;6.19;;;;;;;-2.45;51.99;102180.17;470104;112;922476;-70
2023/01/26 02:47:46;;;;;;;6.86;6.36;;;;;;;-2.47;52.06;102180.25;470410;112;922471;-70
2023/01/26 02:50:11;;;;;;;6.98;6.31;;;;;;;-2.49;52.07;102179.51;471248;112;922829;-70
2023/01/26 02:51:16;;;;;;;6.92;6.33;;;;;;;-2.49;51.99;102178.64;455396;114;922601;-71
2023/01/26 02:52:27;;;;;;;6.87;6.30;;;;;;;-2.53;51.99;102176.14;456044;112;923030;-71
2023/01/26 02:53:32;;;;;;;8.04;6.41;;;;;;;-2.53;52.01;102184.15;467265;112;923089;-71
2023/01/26 02:55:58;;;;;;;8.02;6.63;;;;;;;-2.53;52.05;102177.95;463000;114;922510;-71
2023/01/26 02:57:01;;;;;;;7.21;6.51;;;;;;;-2.54;52.17;102173.59;463397;112;922695;-71
2023/01/26 02:58:04;;;;;;;7.51;6.16;;;;;;;-2.54;52.07;102182.42;463791;112;922329;-70
2023/01/26 02:59:08;;;;;;;6.96;6.36;;;;;;;-2.55;52.06;102185.21;463732;114;922141;-71
2023/01/26 03:00:21;;;;;;;7.16;6.51;;;;;;;-2.56;52.13;102178.14;463803;114;922347;-71
2023/01/26 03:01:24;;;;;;;7.90;7.07;;;;;;;-2.57;52.02;102179.95;463669;112;922468;-70
2023/01/26 03:02:28;;;;;;;6.98;6.38;;;;;;;-2.57;52.03;102176.42;465765;112;922725;-70
2023/01/26 03:03:41;;;;;;;7.82;7.14;;;;;;;-2.58;52.12;102185.38;471822;112;922257;-71
2023/01/26 03:04:44;;;;;;;8.46;7.74;;;;;;;-2.58;52.14;102180.03;467379;112;930497;-70
2023/01/26 03:05:49;;;;;;;8.31;7.49;;;;;;;-2.59;52.13;102189.85;454226;115;922575;-71
2023/01/26 03:06:52;;;;;;;8.16;7.51;;;;;;;-2.59;52.00;102183.69;454331;115;922757;-71
2023/01/26 03:08:01;;;;;;;7.44;6.86;;;;;;;-2.61;52.13;102181.09;464731;112;930564;-70
2023/01/26 03:09:02;;;;;;;9.42;7.43;;;;;;;-2.61;52.06;102186.44;463105;112;922826;-70
2023/01/26 03:10:06;;;;;;;7.61;7.01;;;;;;;-2.61;52.18;102183.77;463171;114;922378;-70
2023/01/26 03:11:10;;;;;;;8.95;8.09;;;;;;;-2.60;52.06;102182.82;463009;114;922910;-70
2023/01/26 03:12:13;;;;;;;8.96;8.04;;;;;;;-2.60;52.15;102184.62;463205;112;923103;-71
2023/01/26 03:13:16;;;;;;;9.27;8.46;;;;;;;-2.61;52.11;102182.91;466334;112;922967;-71
2023/01/26 03:14:19;;;;;;;9.54;8.69;;;;;;;-2.62;52.17;102184.70;463171;114;922475;-70
2023/01/26 03:15:41;;;;;;;10.12;8.36;;;;;;;-2.63;52.09;102193.66;464491;112;922522;-71
2023/01/26 03:16:39;;;;;;;9.08;8.34;;;;;;;-2.62;52.14;102187.38;462955;114;923186;-71
2023/01/26 03:17:43;;;;;;;8.18;7.51;;;;;;;-2.62;52.11;102189.19;460917;115;922610;-71
2023/01/26 03:28:24;;;;;;;9.22;8.26;;;;;;;-2.73;52.29;102175.61;456821;114;922742;-71
2023/01/26 03:29:28;;;;;;;17.89;13.04;;;;;;;-2.74;52.45;102181.89;463072;114;923293;-70
2023/01/26 03:30:33;;;;;;;33.89;20.16;;;;;;;-2.77;52.35;102188.30;462989;114;922591;-69
2023/01/26 03:31:36;;;;;;;37.48;22.26;;;;;;;-2.77;52.43;102176.75;453832;117;922954;-70
2023/01/26 03:32:39;;;;;;;67.54;31.21;;;;;;;-2.76;52.37;102178.48;455551;114;922994;-71
2023/01/26 03:33:44;;;;;;;64.31;29.09;;;;;;;-2.76;52.48;102178.48;462999;112;922539;-71
2023/01/26 03:34:48;;;;;;;62.36;29.79;;;;;;;-2.75;52.48;102174.83;469286;112;922477;-71
2023/01/26 03:35:52;;;;;;;61.55;29.48;;;;;;;-2.75;52.44;102177.50;471490;112;922471;-71
2023/01/26 03:37:01;;;;;;;52.03;27.08;;;;;;;-2.76;52.37;102178.48;471109;112;922468;-70
2023/01/26 03:38:03;;;;;;;66.84;29.61;;;;;;;-2.76;52.47;102181.15;469847;112;922477;-71
2023/01/26 03:41:06;;;;;;;48.00;27.10;;;;;;;-2.76;52.39;102182.02;462036;114;922492;-71
2023/01/26 03:56:40;;;;;;;14.57;12.56;;;;;;;-2.97;52.71;102196.58;462978;114;922503;-71
2023/01/26 03:57:47;;;;;;;14.60;13.34;;;;;;;-2.98;52.77;102195.72;466933;112;922846;-71
2023/01/26 03:58:53;;;;;;;13.34;12.11;;;;;;;-3.00;52.73;102202.97;455418;115;922654;-72
2023/01/26 04:00:02;;;;;;;12.49;11.35;;;;;;;-2.99;52.81;102198.50;454770;114;922578;-71
2023/01/26 04:01:05;;;;;;;12.32;11.12;;;;;;;-3.00;52.80;102197.63;462628;112;922920;-71
2023/01/26 04:09:01;;;;;;;10.68;9.73;;;;;;;-3.02;52.93;102194.18;465518;113;922518;-71
2023/01/26 04:10:05;;;;;;;12.04;11.05;;;;;;;-3.02;52.85;102199.52;463307;113;922563;-71
2023/01/26 04:11:09;;;;;;;10.31;9.48;;;;;;;-3.03;52.92;102195.13;463091;114;930302;-71
2023/01/26 04:12:12;;;;;;;11.12;10.23;;;;;;;-3.02;52.96;102199.52;463190;112;922694;-70
2023/01/26 04:21:33;;;;;;;9.37;8.47;;;;;;;-3.14;52.91;102205.55;463033;114;922491;-72
2023/01/26 04:22:43;;;;;;;9.66;8.86;;;;;;;-3.15;53.01;102202.98;464038;112;922469;-70
2023/01/26 04:23:51;;;;;;;10.72;8.73;;;;;;;-3.15;53.03;102203.85;462394;113;922555;-71
2023/01/26 04:24:55;;;;;;;9.71;8.87;;;;;;;-3.15;53.08;102205.66;462929;114;922689;-71
2023/01/26 04:25:59;;;;;;;9.81;8.92;;;;;;;-3.16;53.07;102204.80;463008;114;923404;-71
2023/01/26 04:27:02;;;;;;;10.03;9.08;;;;;;;-3.15;52.95;102206.52;463125;114;922545;-71
2023/01/26 04:28:10;;;;;;;9.54;8.60;;;;;;;-3.14;53.03;102202.05;462851;112;922990;-71
2023/01/26 04:29:19;;;;;;;9.85;9.04;;;;;;;-3.14;53.01;102196.71;453553;117;922897;-71
2023/01/26 04:30:21;;;;;;;11.45;9.82;;;;;;;-3.14;52.99;102202.05;454353;114;923154;-70
2023/01/26 04:31:24;;;;;;;10.01;9.16;;;;;;;-3.13;52.92;102201.08;463105;114;922497;-70
2023/01/26 04:32:29;;;;;;;11.69;9.88;;;;;;;-3.15;52.78;102201.19;465258;112;922463;-71
2023/01/26 04:33:32;;;;;;;10.79;9.86;;;;;;;-3.15;52.82;102198.52;454765;114;930624;-71
2023/01/26 04:34:36;;;;;;;10.24;9.37;;;;;;;-3.16;52.73;102195.92;453989;114;922636;-71
2023/01/26 04:35:40;;;;;;;9.67;8.82;;;;;;;-3.17;52.75;102199.53;462389;112;922845;-71
2023/01/26 04:36:44;;;;;;;10.40;9.50;;;;;;;-3.17;52.79;102200.41;463049;114;922798;-70
2023/01/26 04:37:51;;;;;;;11.84;10.84;;;;;;;-3.17;52.78;102194.20;463644;112;922827;-70
2023/01/26 04:38:54;;;;;;;11.68;10.68;;;;;;;-3.18;52.80;102200.48;463071;114;922760;-71
2023/01/26 04:39:58;;;;;;;11.32;10.24;;;;;;;-3.19;52.70;102201.42;463047;114;922528;-71
2023/01/26 04:41:04;;;;;;;10.25;9.39;;;;;;;-3.20;52.77;102199.72;463565;112;922505;-70
2023/01/26 04:42:13;;;;;;;11.56;10.00;;;;;;;-3.22;52.79;102205.14;462522;112;922516;-71
2023/01/26 04:43:14;;;;;;;10.86;9.92;;;;;;;-3.23;52.78;102198.08;462885;114;922498;-71
2023/01/26 04:44:18;;;;;;;11.21;10.25;;;;;;;-3.23;52.89;102200.75;463277;112;922891;-71
2023/01/26 04:45:22;;;;;;;11.90;10.18;;;;;;;-3.22;52.84;102196.27;463064;112;930194;-70
2023/01/26 04:46:25;;;;;;;11.71;10.68;;;;;;;-3.23;52.96;102197.21;456529;114;922804;-71
2023/01/26 04:47:28;;;;;;;12.91;11.81;;;;;;;-3.21;53.04;102204.20;459444;112;922677;-72
2023/01/26 04:48:35;;;;;;;12.41;11.04;;;;;;;-3.20;52.96;102205.92;468358;112;922473;-71
2023/01/26 04:49:38;;;;;;;13.58;12.41;;;;;;;-3.21;52.94;102204.20;463419;112;922457;-72
2023/01/26 04:50:41;;;;;;;13.21;12.12;;;;;;;-3.21;53.02;102206.86;462993;114;922591;-71
2023/01/26 04:51:44;;;;;;;13.62;12.28;;;;;;;-3.21;52.88;102209.53;463071;114;922694;-71
2023/01/26 04:52:48;;;;;;;12.72;11.79;;;;;;;-3.21;52.98;102206.00;468400;112;922573;-70
2023/01/26 04:53:51;;;;;;;12.89;11.89;;;;;;;-3.22;52.92;102218.48;468388;112;922473;-71
2023/01/26 04:54:57;;;;;;;13.77;12.54;;;;;;;-3.23;53.03;102214.08;454008;114;922585;-71
2023/01/26 04:56:00;;;;;;;13.98;12.70;;;;;;;-3.23;52.98;102222.08;454632;114;922618;-71
2023/01/26 04:57:04;;;;;;;13.72;12.55;;;;;;;-3.23;53.10;102222.08;454294;115;923096;-70
2023/01/26 04:58:08;;;;;;;14.38;12.35;;;;;;;-3.24;52.95;102223.02;454571;114;922554;-73
2023/01/26 04:59:13;;;;;;;14.09;12.73;;;;;;;-3.23;53.04;102226.55;463279;112;922482;-71
2023/01/26 05:00:17;;;;;;;13.34;12.12;;;;;;;-3.24;52.93;102224.83;462930;114;930379;-77
2023/01/26 05:01:21;;;;;;;13.85;12.21;;;;;;;-3.27;52.98;102225.88;463021;114;922387;-72
2023/01/26 05:02:25;;;;;;;14.42;13.01;;;;;;;-3.29;52.99;102225.09;454485;115;922603;-73
2023/01/26 05:03:28;;;;;;;14.16;12.92;;;;;;;-3.30;53.03;102219.83;454670;114;923020;-72
2023/01/26 05:04:31;;;;;;;13.38;12.18;;;;;;;-3.30;53.06;102228.70;446202;117;922365;-71
2023/01/26 05:05:35;;;;;;;13.26;12.14;;;;;;;-3.30;53.12;102220.70;465825;112;922463;-71
2023/01/26 05:06:40;;;;;;;13.66;12.61;;;;;;;-3.30;53.16;102222.50;465140;112;922787;-72
2023/01/26 05:07:44;;;;;;;17.08;13.08;;;;;;;-3.31;53.09;102216.34;463130;112;922853;-72
2023/01/26 05:08:48;;;;;;;14.20;12.90;;;;;;;-3.33;53.05;102220.88;463107;114;922950;-73
2023/01/26 05:09:51;;;;;;;14.94;13.60;;;;;;;-3.33;52.99;102228.02;463176;114;922523;-74
2023/01/26 05:11:05;;;;;;;13.34;12.09;;;;;;;-3.37;52.98;102222.87;465933;112;923091;-73
2023/01/26 05:14:58;;;;;;;15.66;14.22;;;;;;;-3.28;53.26;102229.48;472271;110;1204140;-72
2023/01/26 05:16:04;;;;;;;15.77;14.49;;;;;;;-3.40;53.19;102228.36;451458;116;922813;-73
2023/01/26 05:17:12;;;;;;;16.04;14.53;;;;;;;-3.37;53.31;102227.34;458926;112;922796;-71
2023/01/26 05:18:22;;;;;;;14.39;13.22;;;;;;;-3.37;53.23;102216.67;464596;114;922966;-73
2023/01/26 05:19:38;;;;;;;15.35;14.11;;;;;;;-3.37;53.19;102214.88;464399;112;922448;-72
2023/01/26 05:20:52;;;;;;;15.56;14.09;;;;;;;-3.38;53.23;102222.95;464175;112;922592;-72
2023/01/26 05:22:02;;;;;;;14.84;13.57;;;;;;;-3.40;53.26;102220.36;464642;112;923223;-72
2023/01/26 05:23:07;;;;;;;16.66;13.58;;;;;;;-3.41;53.36;102220.44;464570;114;930276;-72
2023/01/26 05:24:15;;;;;;;14.31;12.98;;;;;;;-3.42;53.30;102224.91;446540;117;922748;-71
2023/01/26 05:25:20;;;;;;;16.36;14.73;;;;;;;-3.41;53.45;102220.44;444539;112;922929;-72
2023/01/26 05:26:28;;;;;;;16.84;15.29;;;;;;;-3.41;53.46;102223.97;469562;112;922516;-72
2023/01/26 05:27:32;;;;;;;16.62;15.33;;;;;;;-3.40;53.63;102230.16;453753;116;922531;-72
2023/01/26 05:28:36;;;;;;;18.19;16.21;;;;;;;-3.38;53.64;102228.28;457782;116;922591;-71
2023/01/26 05:29:39;;;;;;;16.99;15.43;;;;;;;-3.38;53.74;102228.28;446213;118;922608;-70
2023/01/26 05:30:42;;;;;;;17.20;15.73;;;;;;;-3.37;53.68;102227.34;456336;112;930581;-71
2023/01/26 05:31:46;;;;;;;20.84;16.58;;;;;;;-3.36;53.78;102223.70;464716;114;922545;-71
2023/01/26 05:32:49;;;;;;;16.91;15.21;;;;;;;-3.35;53.72;102230.77;469621;112;922531;-71
2023/01/26 05:33:52;;;;;;;18.48;16.27;;;;;;;-3.33;53.80;102230.69;473047;112;922551;-71
2023/01/26 05:34:57;;;;;;;18.59;17.07;;;;;;;-3.32;53.82;102229.75;465649;112;922553;-70
2023/01/26 05:36:04;;;;;;;18.35;16.61;;;;;;;-3.32;53.77;102230.61;464727;114;922598;-71
2023/01/26 05:37:07;;;;;;;19.89;18.29;;;;;;;-3.30;53.84;102226.03;464610;112;922942;-72
2023/01/26 05:38:11;;;;;;;21.94;20.05;;;;;;;-3.30;53.87;102231.37;464713;114;922432;-72
2023/01/26 05:39:14;;;;;;;21.58;19.63;;;;;;;-3.28;53.84;102228.62;464775;114;922436;-72
2023/01/26 05:40:18;;;;;;;19.93;18.32;;;;;;;-3.29;53.82;102229.56;464742;114;922985;-71
2023/01/26 05:41:21;;;;;;;17.83;16.38;;;;;;;-3.29;53.83;102224.23;464834;112;930701;-72
2023/01/26 05:42:27;;;;;;;16.38;14.47;;;;;;;-3.28;53.87;102226.82;445448;118;922882;-72
2023/01/26 05:43:39;;;;;;;15.19;13.76;;;;;;;-3.16;53.95;102222.60;474175;110;947258;-71
2023/01/26 05:44:44;;;;;;;13.92;12.79;;;;;;;-3.26;53.97;102221.41;464657;113;922485;-72
2023/01/26 05:45:49;;;;;;;13.98;12.83;;;;;;;-3.26;54.00;102224.94;466510;113;923026;-71
2023/01/26 05:46:52;;;;;;;13.88;12.64;;;;;;;-3.25;54.02;102221.30;464738;113;922532;-71